CYYZ/YYZ METAR and TAF weather

Enter ICAO airport designator
Example: see airport list
Station Type Date Time Source
CYYZ METAR 2016/08/24 23:00 UTC NOAA

CYYZ 242300Z 22014KT 15SM FEW080 BKN140 BKN250 28/14 A3000 RMK AC1AC5CI1 SLP158 DENSITY ALT 2000FT


Station Type Date Time Source
CYYZ Decoded METAR 2016/08/24 23:00 UTC NOAA

Toronto Pearson Int'L. Ont., Canada (CYYZ) 43-40N 079-38W 173M
Aug 24, 2016 - 07:00 PM EDT / 2016.08.24 2300 UTC
Wind: from the SW (220 degrees) at 16 MPH (14 KT):0
Visibility: 15 mile(s):0
Sky conditions: mostly cloudy
Temperature: 82 F (28 C)
Dew Point: 57 F (14 C)
Relative Humidity: 42%
Pressure (altimeter): 30 in. Hg (1015 hPa)
ob: CYYZ 242300Z 22014KT 15SM FEW080 BKN140 BKN250 28/14 A3000 RMK AC1AC5CI1 SLP158 DENSITY ALT 2000FT
cycle: 23

Station Type Date Time Source
CYYZ TAF 2016/08/24 21:42 UTC NOAA

TAF CYYZ 242039Z 2421/2524 20015G25KT P6SM FEW060 BKN250
FM242300 21012G22KT P6SM BKN120 BKN240
FM250300 21010KT P6SM -SHRA BKN050 OVC120
TEMPO 2503/2508 5SM -SHRA BR BKN020 OVC050
FM250800 24008KT P6SM BKN015 BKN050
FM251600 25012KT P6SM BKN030 PROB30 2518/2520 2SM TSRA BR BKN015 OVC030CB
FM252000 26015KT P6SM -SHRA BKN030 OVC100 PROB40 2520/2524 1SM +TSRA BR BKN015 OVC030CB
RMK NXT FCST BY 250000Z